sensor_id;sensor_type;location;lat;lon;timestamp;P1;durP1;ratioP1;P2;durP2;ratioP2
39264;SDS011;42646;51.910;7.724;2023-03-05T00:00:17;7.82;;;2.35;;
39264;SDS011;42646;51.910;7.724;2023-03-05T00:02:46;7.35;;;2.08;;
39264;SDS011;42646;51.910;7.724;2023-03-05T00:05:14;12.00;;;2.85;;
39264;SDS011;42646;51.910;7.724;2023-03-05T00:07:42;8.63;;;2.17;;
39264;SDS011;42646;51.910;7.724;2023-03-05T00:10:09;11.18;;;2.20;;
39264;SDS011;42646;51.910;7.724;2023-03-05T00:12:37;8.13;;;2.20;;
39264;SDS011;42646;51.910;7.724;2023-03-05T00:15:08;6.10;;;2.00;;
39264;SDS011;42646;51.910;7.724;2023-03-05T00:17:36;8.48;;;2.20;;
39264;SDS011;42646;51.910;7.724;2023-03-05T00:20:07;8.07;;;2.28;;
39264;SDS011;42646;51.910;7.724;2023-03-05T00:22:36;8.23;;;2.25;;
39264;SDS011;42646;51.910;7.724;2023-03-05T00:25:04;9.85;;;2.30;;
39264;SDS011;42646;51.910;7.724;2023-03-05T00:27:32;11.48;;;2.47;;
39264;SDS011;42646;51.910;7.724;2023-03-05T00:30:00;7.57;;;2.17;;
39264;SDS011;42646;51.910;7.724;2023-03-05T00:32:28;9.20;;;2.22;;
39264;SDS011;42646;51.910;7.724;2023-03-05T00:34:56;7.50;;;2.05;;
39264;SDS011;42646;51.910;7.724;2023-03-05T00:37:25;5.60;;;1.92;;
39264;SDS011;42646;51.910;7.724;2023-03-05T00:39:53;7.15;;;2.00;;
39264;SDS011;42646;51.910;7.724;2023-03-05T00:42:20;5.63;;;2.00;;
39264;SDS011;42646;51.910;7.724;2023-03-05T00:44:49;8.65;;;2.58;;
39264;SDS011;42646;51.910;7.724;2023-03-05T00:47:16;7.75;;;1.98;;
39264;SDS011;42646;51.910;7.724;2023-03-05T00:49:44;7.30;;;2.33;;
39264;SDS011;42646;51.910;7.724;2023-03-05T00:52:13;7.93;;;2.40;;
39264;SDS011;42646;51.910;7.724;2023-03-05T00:54:42;9.43;;;2.40;;
39264;SDS011;42646;51.910;7.724;2023-03-05T00:57:10;8.20;;;2.13;;
39264;SDS011;42646;51.910;7.724;2023-03-05T00:59:38;8.73;;;2.35;;
39264;SDS011;42646;51.910;7.724;2023-03-05T01:02:05;6.97;;;2.10;;
39264;SDS011;42646;51.910;7.724;2023-03-05T01:04:34;7.45;;;2.33;;
39264;SDS011;42646;51.910;7.724;2023-03-05T01:07:03;8.52;;;2.38;;
39264;SDS011;42646;51.910;7.724;2023-03-05T01:09:31;9.10;;;2.20;;
39264;SDS011;42646;51.910;7.724;2023-03-05T01:12:01;6.68;;;2.10;;
39264;SDS011;42646;51.910;7.724;2023-03-05T01:14:30;8.95;;;2.53;;
39264;SDS011;42646;51.910;7.724;2023-03-05T01:16:59;10.80;;;2.50;;
39264;SDS011;42646;51.910;7.724;2023-03-05T01:19:29;8.57;;;2.17;;
39264;SDS011;42646;51.910;7.724;2023-03-05T01:21:57;10.57;;;2.30;;
39264;SDS011;42646;51.910;7.724;2023-03-05T01:24:25;7.55;;;2.17;;
39264;SDS011;42646;51.910;7.724;2023-03-05T01:26:52;6.50;;;1.90;;
39264;SDS011;42646;51.910;7.724;2023-03-05T01:29:21;8.25;;;2.28;;
39264;SDS011;42646;51.910;7.724;2023-03-05T01:31:49;7.55;;;2.30;;
39264;SDS011;42646;51.910;7.724;2023-03-05T01:34:17;7.20;;;2.25;;
39264;SDS011;42646;51.910;7.724;2023-03-05T01:36:46;10.25;;;2.33;;
39264;SDS011;42646;51.910;7.724;2023-03-05T01:39:15;7.57;;;2.17;;
39264;SDS011;42646;51.910;7.724;2023-03-05T01:41:43;7.80;;;2.20;;
39264;SDS011;42646;51.910;7.724;2023-03-05T01:44:16;7.40;;;2.00;;
39264;SDS011;42646;51.910;7.724;2023-03-05T01:46:54;7.95;;;2.40;;
39264;SDS011;42646;51.910;7.724;2023-03-05T01:49:23;10.02;;;2.28;;
39264;SDS011;42646;51.910;7.724;2023-03-05T01:52:00;8.18;;;2.20;;
39264;SDS011;42646;51.910;7.724;2023-03-05T01:54:32;7.30;;;2.00;;
39264;SDS011;42646;51.910;7.724;2023-03-05T01:57:05;8.67;;;2.30;;
39264;SDS011;42646;51.910;7.724;2023-03-05T01:59:37;8.75;;;2.22;;
39264;SDS011;42646;51.910;7.724;2023-03-05T02:02:08;6.97;;;2.20;;
39264;SDS011;42646;51.910;7.724;2023-03-05T02:04:36;7.88;;;2.10;;
39264;SDS011;42646;51.910;7.724;2023-03-05T02:07:09;7.00;;;2.20;;
39264;SDS011;42646;51.910;7.724;2023-03-05T02:09:37;8.43;;;2.85;;
39264;SDS011;42646;51.910;7.724;2023-03-05T02:12:06;8.27;;;2.20;;
39264;SDS011;42646;51.910;7.724;2023-03-05T02:14:37;7.30;;;2.22;;
39264;SDS011;42646;51.910;7.724;2023-03-05T02:17:09;6.97;;;2.33;;
39264;SDS011;42646;51.910;7.724;2023-03-05T02:19:48;8.90;;;2.10;;
39264;SDS011;42646;51.910;7.724;2023-03-05T02:22:19;7.60;;;2.25;;
39264;SDS011;42646;51.910;7.724;2023-03-05T02:24:50;7.35;;;2.45;;
39264;SDS011;42646;51.910;7.724;2023-03-05T02:27:20;7.57;;;2.28;;
39264;SDS011;42646;51.910;7.724;2023-03-05T02:29:53;8.38;;;2.35;;
39264;SDS011;42646;51.910;7.724;2023-03-05T02:32:20;8.50;;;2.67;;
39264;SDS011;42646;51.910;7.724;2023-03-05T02:34:50;11.02;;;3.13;;
39264;SDS011;42646;51.910;7.724;2023-03-05T02:37:20;8.65;;;2.30;;
39264;SDS011;42646;51.910;7.724;2023-03-05T02:39:50;7.00;;;2.33;;
39264;SDS011;42646;51.910;7.724;2023-03-05T02:42:17;7.55;;;2.33;;
39264;SDS011;42646;51.910;7.724;2023-03-05T02:44:45;7.60;;;2.33;;
39264;SDS011;42646;51.910;7.724;2023-03-05T02:47:13;5.85;;;2.15;;
39264;SDS011;42646;51.910;7.724;2023-03-05T02:49:41;7.80;;;2.17;;
39264;SDS011;42646;51.910;7.724;2023-03-05T02:52:09;6.22;;;2.30;;
39264;SDS011;42646;51.910;7.724;2023-03-05T02:55:04;4.78;;;1.92;;
39264;SDS011;42646;51.910;7.724;2023-03-05T02:57:34;7.57;;;2.00;;
39264;SDS011;42646;51.910;7.724;2023-03-05T03:00:02;7.15;;;2.00;;
39264;SDS011;42646;51.910;7.724;2023-03-05T03:02:30;6.47;;;2.03;;
39264;SDS011;42646;51.910;7.724;2023-03-05T03:04:58;7.97;;;2.38;;
39264;SDS011;42646;51.910;7.724;2023-03-05T03:07:25;7.88;;;2.17;;
39264;SDS011;42646;51.910;7.724;2023-03-05T03:09:54;8.27;;;2.47;;
39264;SDS011;42646;51.910;7.724;2023-03-05T03:12:24;4.40;;;2.00;;
39264;SDS011;42646;51.910;7.724;2023-03-05T03:14:53;5.88;;;2.10;;
39264;SDS011;42646;51.910;7.724;2023-03-05T03:17:22;5.90;;;2.10;;
39264;SDS011;42646;51.910;7.724;2023-03-05T03:19:53;8.55;;;2.13;;
39264;SDS011;42646;51.910;7.724;2023-03-05T03:22:22;6.13;;;1.80;;
39264;SDS011;42646;51.910;7.724;2023-03-05T03:24:50;7.65;;;2.40;;
39264;SDS011;42646;51.910;7.724;2023-03-05T03:27:19;7.80;;;1.90;;
39264;SDS011;42646;51.910;7.724;2023-03-05T03:29:48;7.03;;;2.78;;
39264;SDS011;42646;51.910;7.724;2023-03-05T03:32:16;7.18;;;2.08;;
39264;SDS011;42646;51.910;7.724;2023-03-05T03:34:44;10.07;;;2.20;;
39264;SDS011;42646;51.910;7.724;2023-03-05T03:37:14;4.57;;;1.83;;
39264;SDS011;42646;51.910;7.724;2023-03-05T03:39:42;5.93;;;2.30;;
39264;SDS011;42646;51.910;7.724;2023-03-05T03:42:09;7.75;;;2.10;;
39264;SDS011;42646;51.910;7.724;2023-03-05T03:44:37;5.65;;;1.70;;
39264;SDS011;42646;51.910;7.724;2023-03-05T03:47:06;6.93;;;1.88;;
39264;SDS011;42646;51.910;7.724;2023-03-05T03:49:35;6.25;;;2.10;;
39264;SDS011;42646;51.910;7.724;2023-03-05T03:52:03;7.10;;;2.00;;
39264;SDS011;42646;51.910;7.724;2023-03-05T03:54:31;4.78;;;1.90;;
39264;SDS011;42646;51.910;7.724;2023-03-05T03:56:59;5.22;;;2.33;;
39264;SDS011;42646;51.910;7.724;2023-03-05T03:59:27;7.30;;;2.03;;
39264;SDS011;42646;51.910;7.724;2023-03-05T04:01:55;5.22;;;1.85;;
39264;SDS011;42646;51.910;7.724;2023-03-05T04:04:24;7.47;;;2.17;;
39264;SDS011;42646;51.910;7.724;2023-03-05T04:06:54;7.28;;;2.15;;
39264;SDS011;42646;51.910;7.724;2023-03-05T04:09:25;9.35;;;2.40;;
39264;SDS011;42646;51.910;7.724;2023-03-05T04:11:52;7.50;;;2.20;;
39264;SDS011;42646;51.910;7.724;2023-03-05T04:14:21;7.53;;;2.55;;
39264;SDS011;42646;51.910;7.724;2023-03-05T04:16:49;7.82;;;2.40;;
39264;SDS011;42646;51.910;7.724;2023-03-05T04:19:16;6.95;;;2.50;;
39264;SDS011;42646;51.910;7.724;2023-03-05T04:21:45;7.88;;;2.50;;
39264;SDS011;42646;51.910;7.724;2023-03-05T04:24:15;10.50;;;2.70;;
39264;SDS011;42646;51.910;7.724;2023-03-05T04:26:43;9.30;;;2.65;;
39264;SDS011;42646;51.910;7.724;2023-03-05T04:29:11;6.80;;;2.25;;
39264;SDS011;42646;51.910;7.724;2023-03-05T04:31:40;7.70;;;2.35;;
39264;SDS011;42646;51.910;7.724;2023-03-05T04:34:09;9.27;;;2.75;;
39264;SDS011;42646;51.910;7.724;2023-03-05T04:36:37;12.75;;;3.25;;
39264;SDS011;42646;51.910;7.724;2023-03-05T04:39:06;8.48;;;2.55;;
39264;SDS011;42646;51.910;7.724;2023-03-05T04:41:34;7.25;;;2.42;;
39264;SDS011;42646;51.910;7.724;2023-03-05T04:44:02;10.35;;;2.97;;
39264;SDS011;42646;51.910;7.724;2023-03-05T04:46:30;7.95;;;1.95;;
39264;SDS011;42646;51.910;7.724;2023-03-05T04:48:58;6.70;;;2.28;;
39264;SDS011;42646;51.910;7.724;2023-03-05T04:51:26;7.82;;;2.40;;
39264;SDS011;42646;51.910;7.724;2023-03-05T04:53:54;5.72;;;2.90;;
39264;SDS011;42646;51.910;7.724;2023-03-05T04:56:24;8.48;;;2.58;;
39264;SDS011;42646;51.910;7.724;2023-03-05T04:58:51;8.55;;;2.05;;
39264;SDS011;42646;51.910;7.724;2023-03-05T05:01:22;6.68;;;2.13;;
39264;SDS011;42646;51.910;7.724;2023-03-05T05:03:50;8.20;;;2.33;;
39264;SDS011;42646;51.910;7.724;2023-03-05T05:06:21;12.48;;;2.45;;
39264;SDS011;42646;51.910;7.724;2023-03-05T05:08:49;7.90;;;2.20;;
39264;SDS011;42646;51.910;7.724;2023-03-05T05:11:17;8.70;;;2.38;;
39264;SDS011;42646;51.910;7.724;2023-03-05T05:13:46;6.43;;;2.50;;
39264;SDS011;42646;51.910;7.724;2023-03-05T05:16:14;6.30;;;2.25;;
39264;SDS011;42646;51.910;7.724;2023-03-05T05:18:42;6.80;;;2.10;;
39264;SDS011;42646;51.910;7.724;2023-03-05T05:21:11;8.93;;;2.55;;
39264;SDS011;42646;51.910;7.724;2023-03-05T05:23:43;4.85;;;1.95;;
39264;SDS011;42646;51.910;7.724;2023-03-05T05:26:11;8.27;;;2.63;;
39264;SDS011;42646;51.910;7.724;2023-03-05T05:28:39;7.15;;;2.38;;
39264;SDS011;42646;51.910;7.724;2023-03-05T05:31:10;10.35;;;2.45;;
39264;SDS011;42646;51.910;7.724;2023-03-05T05:33:39;6.13;;;2.15;;
39264;SDS011;42646;51.910;7.724;2023-03-05T05:36:08;8.52;;;3.00;;
39264;SDS011;42646;51.910;7.724;2023-03-05T05:38:39;7.27;;;2.50;;
39264;SDS011;42646;51.910;7.724;2023-03-05T05:41:08;5.88;;;2.30;;
39264;SDS011;42646;51.910;7.724;2023-03-05T05:43:36;5.40;;;2.20;;
39264;SDS011;42646;51.910;7.724;2023-03-05T05:46:07;5.88;;;2.28;;
39264;SDS011;42646;51.910;7.724;2023-03-05T05:48:39;6.00;;;2.75;;
39264;SDS011;42646;51.910;7.724;2023-03-05T05:51:07;7.85;;;2.13;;
39264;SDS011;42646;51.910;7.724;2023-03-05T05:53:36;6.97;;;3.35;;
39264;SDS011;42646;51.910;7.724;2023-03-05T05:56:05;8.93;;;2.42;;
39264;SDS011;42646;51.910;7.724;2023-03-05T05:58:33;6.97;;;2.58;;
39264;SDS011;42646;51.910;7.724;2023-03-05T06:01:01;6.18;;;2.00;;
39264;SDS011;42646;51.910;7.724;2023-03-05T06:03:29;5.80;;;2.00;;
39264;SDS011;42646;51.910;7.724;2023-03-05T06:05:58;5.65;;;2.20;;
39264;SDS011;42646;51.910;7.724;2023-03-05T06:08:29;5.63;;;2.17;;
39264;SDS011;42646;51.910;7.724;2023-03-05T06:10:57;4.90;;;2.35;;
39264;SDS011;42646;51.910;7.724;2023-03-05T06:13:28;7.03;;;2.20;;
39264;SDS011;42646;51.910;7.724;2023-03-05T06:15:56;5.70;;;2.42;;
39264;SDS011;42646;51.910;7.724;2023-03-05T06:18:24;8.98;;;2.33;;
39264;SDS011;42646;51.910;7.724;2023-03-05T06:20:53;6.72;;;2.05;;
39264;SDS011;42646;51.910;7.724;2023-03-05T06:23:22;6.78;;;2.13;;
39264;SDS011;42646;51.910;7.724;2023-03-05T06:25:52;5.78;;;2.20;;
39264;SDS011;42646;51.910;7.724;2023-03-05T06:28:20;8.38;;;2.35;;
39264;SDS011;42646;51.910;7.724;2023-03-05T06:30:48;4.65;;;2.00;;
39264;SDS011;42646;51.910;7.724;2023-03-05T06:33:17;6.30;;;2.80;;
39264;SDS011;42646;51.910;7.724;2023-03-05T06:35:47;7.40;;;2.25;;
39264;SDS011;42646;51.910;7.724;2023-03-05T06:38:15;4.60;;;2.00;;
39264;SDS011;42646;51.910;7.724;2023-03-05T06:40:44;7.88;;;2.45;;
39264;SDS011;42646;51.910;7.724;2023-03-05T06:43:12;6.45;;;2.00;;
39264;SDS011;42646;51.910;7.724;2023-03-05T06:45:40;5.45;;;2.60;;
39264;SDS011;42646;51.910;7.724;2023-03-05T06:48:09;7.88;;;2.33;;
39264;SDS011;42646;51.910;7.724;2023-03-05T06:50:37;7.35;;;2.33;;
39264;SDS011;42646;51.910;7.724;2023-03-05T06:53:07;7.07;;;2.20;;
39264;SDS011;42646;51.910;7.724;2023-03-05T06:55:35;6.07;;;2.53;;
39264;SDS011;42646;51.910;7.724;2023-03-05T06:58:07;9.40;;;2.38;;
39264;SDS011;42646;51.910;7.724;2023-03-05T07:00:34;7.55;;;2.40;;
39264;SDS011;42646;51.910;7.724;2023-03-05T07:03:02;7.07;;;2.50;;
39264;SDS011;42646;51.910;7.724;2023-03-05T07:05:30;6.22;;;2.30;;
39264;SDS011;42646;51.910;7.724;2023-03-05T07:07:59;7.55;;;2.28;;
39264;SDS011;42646;51.910;7.724;2023-03-05T07:10:29;9.13;;;2.83;;
39264;SDS011;42646;51.910;7.724;2023-03-05T07:12:58;6.53;;;2.53;;
39264;SDS011;42646;51.910;7.724;2023-03-05T07:15:29;6.00;;;2.30;;
39264;SDS011;42646;51.910;7.724;2023-03-05T07:17:57;5.90;;;2.60;;
39264;SDS011;42646;51.910;7.724;2023-03-05T07:20:27;8.27;;;2.58;;
39264;SDS011;42646;51.910;7.724;2023-03-05T07:22:55;5.55;;;2.50;;
39264;SDS011;42646;51.910;7.724;2023-03-05T07:25:23;5.53;;;2.50;;
39264;SDS011;42646;51.910;7.724;2023-03-05T07:27:51;8.10;;;2.85;;
39264;SDS011;42646;51.910;7.724;2023-03-05T07:30:19;5.95;;;2.70;;
39264;SDS011;42646;51.910;7.724;2023-03-05T07:32:48;7.00;;;2.72;;
39264;SDS011;42646;51.910;7.724;2023-03-05T07:35:21;5.82;;;3.30;;
39264;SDS011;42646;51.910;7.724;2023-03-05T07:37:49;7.65;;;3.25;;
39264;SDS011;42646;51.910;7.724;2023-03-05T07:40:20;9.88;;;2.92;;
39264;SDS011;42646;51.910;7.724;2023-03-05T07:42:48;7.25;;;2.60;;
39264;SDS011;42646;51.910;7.724;2023-03-05T07:45:26;6.97;;;2.85;;
39264;SDS011;42646;51.910;7.724;2023-03-05T07:47:55;7.57;;;2.67;;
39264;SDS011;42646;51.910;7.724;2023-03-05T07:50:23;6.43;;;3.17;;
39264;SDS011;42646;51.910;7.724;2023-03-05T07:52:51;7.05;;;2.78;;
39264;SDS011;42646;51.910;7.724;2023-03-05T07:55:19;8.73;;;2.55;;
39264;SDS011;42646;51.910;7.724;2023-03-05T07:57:47;6.75;;;2.95;;
39264;SDS011;42646;51.910;7.724;2023-03-05T08:00:14;6.82;;;2.70;;
39264;SDS011;42646;51.910;7.724;2023-03-05T08:02:43;7.35;;;2.88;;
39264;SDS011;42646;51.910;7.724;2023-03-05T08:05:12;6.10;;;2.88;;
39264;SDS011;42646;51.910;7.724;2023-03-05T08:07:40;6.35;;;2.60;;
39264;SDS011;42646;51.910;7.724;2023-03-05T08:10:09;5.40;;;2.38;;
39264;SDS011;42646;51.910;7.724;2023-03-05T08:12:38;5.00;;;2.33;;
39264;SDS011;42646;51.910;7.724;2023-03-05T08:15:06;4.13;;;1.98;;
39264;SDS011;42646;51.910;7.724;2023-03-05T08:17:35;5.72;;;2.00;;
39264;SDS011;42646;51.910;7.724;2023-03-05T08:20:03;6.10;;;1.88;;
39264;SDS011;42646;51.910;7.724;2023-03-05T08:22:41;6.35;;;2.22;;
39264;SDS011;42646;51.910;7.724;2023-03-05T08:25:09;4.43;;;1.95;;
39264;SDS011;42646;51.910;7.724;2023-03-05T08:27:39;3.75;;;1.90;;
39264;SDS011;42646;51.910;7.724;2023-03-05T08:30:10;5.43;;;1.70;;
39264;SDS011;42646;51.910;7.724;2023-03-05T08:32:39;3.53;;;1.60;;
39264;SDS011;42646;51.910;7.724;2023-03-05T08:35:07;3.92;;;1.85;;
39264;SDS011;42646;51.910;7.724;2023-03-05T08:37:37;4.25;;;1.77;;
39264;SDS011;42646;51.910;7.724;2023-03-05T08:40:07;3.00;;;1.80;;
39264;SDS011;42646;51.910;7.724;2023-03-05T08:42:36;4.07;;;1.90;;
39264;SDS011;42646;51.910;7.724;2023-03-05T08:45:04;3.67;;;1.65;;
39264;SDS011;42646;51.910;7.724;2023-03-05T08:47:32;4.18;;;2.10;;
39264;SDS011;42646;51.910;7.724;2023-03-05T08:49:59;3.60;;;1.80;;
39264;SDS011;42646;51.910;7.724;2023-03-05T08:52:27;4.97;;;2.00;;
39264;SDS011;42646;51.910;7.724;2023-03-05T08:54:55;4.75;;;2.22;;
39264;SDS011;42646;51.910;7.724;2023-03-05T08:57:24;5.07;;;2.03;;
39264;SDS011;42646;51.910;7.724;2023-03-05T08:59:54;5.78;;;1.90;;
39264;SDS011;42646;51.910;7.724;2023-03-05T09:02:21;6.30;;;2.30;;
39264;SDS011;42646;51.910;7.724;2023-03-05T09:04:49;6.85;;;2.22;;
39264;SDS011;42646;51.910;7.724;2023-03-05T09:07:17;6.32;;;2.38;;
39264;SDS011;42646;51.910;7.724;2023-03-05T09:09:44;4.50;;;2.13;;
39264;SDS011;42646;51.910;7.724;2023-03-05T09:12:12;4.78;;;2.28;;
39264;SDS011;42646;51.910;7.724;2023-03-05T09:14:42;5.55;;;2.47;;
39264;SDS011;42646;51.910;7.724;2023-03-05T09:17:10;5.13;;;2.58;;
39264;SDS011;42646;51.910;7.724;2023-03-05T09:19:41;7.43;;;2.60;;
39264;SDS011;42646;51.910;7.724;2023-03-05T09:22:09;6.05;;;2.35;;
39264;SDS011;42646;51.910;7.724;2023-03-05T09:24:38;5.00;;;2.10;;
39264;SDS011;42646;51.910;7.724;2023-03-05T09:27:06;5.25;;;2.13;;
39264;SDS011;42646;51.910;7.724;2023-03-05T09:29:33;6.00;;;2.67;;
39264;SDS011;42646;51.910;7.724;2023-03-05T09:32:02;5.25;;;2.00;;
39264;SDS011;42646;51.910;7.724;2023-03-05T09:34:30;5.03;;;2.10;;
39264;SDS011;42646;51.910;7.724;2023-03-05T09:36:59;5.68;;;2.28;;
39264;SDS011;42646;51.910;7.724;2023-03-05T09:39:28;5.40;;;2.53;;
39264;SDS011;42646;51.910;7.724;2023-03-05T09:42:07;6.35;;;2.50;;
39264;SDS011;42646;51.910;7.724;2023-03-05T09:44:50;5.63;;;2.17;;
39264;SDS011;42646;51.910;7.724;2023-03-05T09:47:38;4.38;;;2.10;;
39264;SDS011;42646;51.910;7.724;2023-03-05T09:50:26;5.07;;;2.63;;
39264;SDS011;42646;51.910;7.724;2023-03-05T09:53:01;5.75;;;2.53;;
39264;SDS011;42646;51.910;7.724;2023-03-05T09:55:34;5.93;;;2.30;;
39264;SDS011;42646;51.910;7.724;2023-03-05T09:58:06;5.13;;;2.20;;
39264;SDS011;42646;51.910;7.724;2023-03-05T10:00:40;6.75;;;2.40;;
39264;SDS011;42646;51.910;7.724;2023-03-05T10:03:17;5.65;;;2.55;;
39264;SDS011;42646;51.910;7.724;2023-03-05T10:05:52;5.82;;;2.63;;
39264;SDS011;42646;51.910;7.724;2023-03-05T10:08:32;9.55;;;3.05;;
39264;SDS011;42646;51.910;7.724;2023-03-05T10:11:16;5.97;;;2.40;;
39264;SDS011;42646;51.910;7.724;2023-03-05T10:14:00;5.40;;;2.28;;
39264;SDS011;42646;51.910;7.724;2023-03-05T10:22:30;4.60;;;2.22;;
39264;SDS011;42646;51.910;7.724;2023-03-05T10:25:13;5.03;;;2.15;;
39264;SDS011;42646;51.910;7.724;2023-03-05T10:33:21;7.38;;;2.20;;
39264;SDS011;42646;51.910;7.724;2023-03-05T10:36:08;5.22;;;2.10;;
39264;SDS011;42646;51.910;7.724;2023-03-05T10:38:56;4.57;;;2.10;;
39264;SDS011;42646;51.910;7.724;2023-03-05T10:41:39;5.57;;;2.13;;
39264;SDS011;42646;51.910;7.724;2023-03-05T10:44:16;4.57;;;2.10;;
39264;SDS011;42646;51.910;7.724;2023-03-05T10:46:50;9.88;;;2.20;;
39264;SDS011;42646;51.910;7.724;2023-03-05T10:49:21;5.07;;;2.00;;
39264;SDS011;42646;51.910;7.724;2023-03-05T10:52:00;4.32;;;1.60;;
39264;SDS011;42646;51.910;7.724;2023-03-05T10:54:34;5.80;;;2.00;;
39264;SDS011;42646;51.910;7.724;2023-03-05T10:57:12;6.35;;;2.10;;
39264;SDS011;42646;51.910;7.724;2023-03-05T10:59:46;5.38;;;1.75;;
39264;SDS011;42646;51.910;7.724;2023-03-05T11:02:18;4.65;;;1.83;;
39264;SDS011;42646;51.910;7.724;2023-03-05T11:04:47;2.85;;;1.40;;
39264;SDS011;42646;51.910;7.724;2023-03-05T11:07:34;3.05;;;1.42;;
39264;SDS011;42646;51.910;7.724;2023-03-05T11:10:04;4.18;;;1.23;;
39264;SDS011;42646;51.910;7.724;2023-03-05T11:12:50;3.25;;;1.10;;
39264;SDS011;42646;51.910;7.724;2023-03-05T11:15:24;1.98;;;1.00;;
39264;SDS011;42646;51.910;7.724;2023-03-05T11:18:06;3.70;;;1.40;;
39264;SDS011;42646;51.910;7.724;2023-03-05T11:20:43;2.60;;;1.30;;
39264;SDS011;42646;51.910;7.724;2023-03-05T11:23:14;3.50;;;1.20;;
39264;SDS011;42646;51.910;7.724;2023-03-05T11:28:19;4.70;;;1.30;;
39264;SDS011;42646;51.910;7.724;2023-03-05T11:31:06;6.00;;;1.50;;
39264;SDS011;42646;51.910;7.724;2023-03-05T11:33:53;4.05;;;1.80;;
39264;SDS011;42646;51.910;7.724;2023-03-05T11:36:23;3.13;;;1.50;;
39264;SDS011;42646;51.910;7.724;2023-03-05T11:38:55;4.13;;;1.40;;
39264;SDS011;42646;51.910;7.724;2023-03-05T11:41:30;5.22;;;1.50;;
39264;SDS011;42646;51.910;7.724;2023-03-05T11:44:03;4.95;;;1.77;;
39264;SDS011;42646;51.910;7.724;2023-03-05T11:46:40;3.65;;;1.60;;
39264;SDS011;42646;51.910;7.724;2023-03-05T11:49:11;3.92;;;1.50;;
39264;SDS011;42646;51.910;7.724;2023-03-05T11:51:43;4.25;;;1.55;;
39264;SDS011;42646;51.910;7.724;2023-03-05T11:54:17;4.15;;;1.50;;
39264;SDS011;42646;51.910;7.724;2023-03-05T11:56:49;4.10;;;1.50;;
39264;SDS011;42646;51.910;7.724;2023-03-05T11:59:18;4.47;;;1.58;;
39264;SDS011;42646;51.910;7.724;2023-03-05T12:01:52;4.65;;;1.50;;
39264;SDS011;42646;51.910;7.724;2023-03-05T12:04:21;3.55;;;1.40;;
39264;SDS011;42646;51.910;7.724;2023-03-05T12:06:51;3.78;;;1.60;;
39264;SDS011;42646;51.910;7.724;2023-03-05T12:09:24;5.03;;;1.60;;
39264;SDS011;42646;51.910;7.724;2023-03-05T12:12:00;7.00;;;1.55;;
39264;SDS011;42646;51.910;7.724;2023-03-05T12:14:37;3.20;;;1.35;;
39264;SDS011;42646;51.910;7.724;2023-03-05T12:17:12;4.75;;;1.40;;
39264;SDS011;42646;51.910;7.724;2023-03-05T12:19:46;3.40;;;1.50;;
39264;SDS011;42646;51.910;7.724;2023-03-05T12:22:20;4.03;;;1.70;;
39264;SDS011;42646;51.910;7.724;2023-03-05T12:24:50;3.55;;;1.40;;
39264;SDS011;42646;51.910;7.724;2023-03-05T12:27:32;2.67;;;1.30;;
39264;SDS011;42646;51.910;7.724;2023-03-05T12:30:03;3.95;;;1.48;;
39264;SDS011;42646;51.910;7.724;2023-03-05T12:35:29;5.10;;;1.60;;
39264;SDS011;42646;51.910;7.724;2023-03-05T12:38:05;3.65;;;1.73;;
39264;SDS011;42646;51.910;7.724;2023-03-05T12:40:53;4.03;;;1.40;;
39264;SDS011;42646;51.910;7.724;2023-03-05T12:44:19;4.20;;;1.58;;
39264;SDS011;42646;51.910;7.724;2023-03-05T12:49:48;3.50;;;1.50;;
39264;SDS011;42646;51.910;7.724;2023-03-05T12:52:23;3.58;;;1.27;;
39264;SDS011;42646;51.910;7.724;2023-03-05T12:54:55;3.40;;;1.40;;
39264;SDS011;42646;51.910;7.724;2023-03-05T12:57:27;3.38;;;1.20;;
39264;SDS011;42646;51.910;7.724;2023-03-05T12:59:59;4.22;;;1.20;;
39264;SDS011;42646;51.910;7.724;2023-03-05T13:02:32;3.42;;;1.20;;
39264;SDS011;42646;51.910;7.724;2023-03-05T13:05:03;3.22;;;1.20;;
39264;SDS011;42646;51.910;7.724;2023-03-05T13:07:41;5.32;;;1.60;;
39264;SDS011;42646;51.910;7.724;2023-03-05T13:10:33;4.32;;;1.35;;
39264;SDS011;42646;51.910;7.724;2023-03-05T13:13:01;3.45;;;1.30;;
39264;SDS011;42646;51.910;7.724;2023-03-05T13:15:30;5.05;;;1.75;;
39264;SDS011;42646;51.910;7.724;2023-03-05T13:18:00;4.28;;;1.60;;
39264;SDS011;42646;51.910;7.724;2023-03-05T13:20:35;3.40;;;1.40;;
39264;SDS011;42646;51.910;7.724;2023-03-05T13:25:55;5.60;;;1.83;;
39264;SDS011;42646;51.910;7.724;2023-03-05T13:28:25;3.88;;;1.50;;
39264;SDS011;42646;51.910;7.724;2023-03-05T13:30:55;2.85;;;1.27;;
39264;SDS011;42646;51.910;7.724;2023-03-05T13:33:26;3.75;;;1.70;;
39264;SDS011;42646;51.910;7.724;2023-03-05T13:35:55;3.25;;;1.40;;
39264;SDS011;42646;51.910;7.724;2023-03-05T13:38:24;3.30;;;1.50;;
39264;SDS011;42646;51.910;7.724;2023-03-05T13:41:03;3.47;;;1.50;;
39264;SDS011;42646;51.910;7.724;2023-03-05T13:43:40;4.43;;;1.60;;
39264;SDS011;42646;51.910;7.724;2023-03-05T13:46:10;4.28;;;1.58;;
39264;SDS011;42646;51.910;7.724;2023-03-05T13:48:39;2.92;;;1.35;;
39264;SDS011;42646;51.910;7.724;2023-03-05T13:51:07;3.88;;;1.20;;
39264;SDS011;42646;51.910;7.724;2023-03-05T13:53:37;2.40;;;1.30;;
39264;SDS011;42646;51.910;7.724;2023-03-05T13:56:12;4.18;;;1.35;;
39264;SDS011;42646;51.910;7.724;2023-03-05T13:58:45;3.33;;;1.13;;
39264;SDS011;42646;51.910;7.724;2023-03-05T14:04:15;1.27;;;1.10;;
39264;SDS011;42646;51.910;7.724;2023-03-05T14:06:47;2.92;;;1.02;;
39264;SDS011;42646;51.910;7.724;2023-03-05T14:09:19;5.13;;;1.50;;
39264;SDS011;42646;51.910;7.724;2023-03-05T14:11:52;3.63;;;1.40;;
39264;SDS011;42646;51.910;7.724;2023-03-05T14:14:22;5.03;;;1.60;;
39264;SDS011;42646;51.910;7.724;2023-03-05T14:16:52;5.68;;;1.83;;
39264;SDS011;42646;51.910;7.724;2023-03-05T14:19:31;4.00;;;1.60;;
39264;SDS011;42646;51.910;7.724;2023-03-05T14:22:03;3.55;;;1.17;;
39264;SDS011;42646;51.910;7.724;2023-03-05T14:24:32;2.75;;;1.20;;
39264;SDS011;42646;51.910;7.724;2023-03-05T14:27:02;2.63;;;1.10;;
39264;SDS011;42646;51.910;7.724;2023-03-05T14:29:33;2.25;;;1.00;;
39264;SDS011;42646;51.910;7.724;2023-03-05T14:32:05;3.35;;;1.23;;
39264;SDS011;42646;51.910;7.724;2023-03-05T14:34:39;2.80;;;1.13;;
39264;SDS011;42646;51.910;7.724;2023-03-05T14:37:15;2.22;;;1.00;;
39264;SDS011;42646;51.910;7.724;2023-03-05T14:39:50;3.35;;;1.10;;
39264;SDS011;42646;51.910;7.724;2023-03-05T14:42:24;2.85;;;1.10;;
39264;SDS011;42646;51.910;7.724;2023-03-05T14:44:58;3.30;;;1.35;;
39264;SDS011;42646;51.910;7.724;2023-03-05T14:47:28;3.28;;;1.30;;
39264;SDS011;42646;51.910;7.724;2023-03-05T14:49:56;2.85;;;1.38;;
39264;SDS011;42646;51.910;7.724;2023-03-05T14:52:23;3.28;;;1.20;;
39264;SDS011;42646;51.910;7.724;2023-03-05T14:54:52;3.42;;;1.30;;
39264;SDS011;42646;51.910;7.724;2023-03-05T14:57:25;3.33;;;1.50;;
39264;SDS011;42646;51.910;7.724;2023-03-05T14:59:54;2.97;;;1.10;;
39264;SDS011;42646;51.910;7.724;2023-03-05T15:02:23;3.67;;;1.05;;
39264;SDS011;42646;51.910;7.724;2023-03-05T15:04:53;2.83;;;1.08;;
39264;SDS011;42646;51.910;7.724;2023-03-05T15:07:24;2.88;;;1.13;;
39264;SDS011;42646;51.910;7.724;2023-03-05T15:09:55;2.70;;;1.30;;
39264;SDS011;42646;51.910;7.724;2023-03-05T15:12:25;2.63;;;1.23;;
39264;SDS011;42646;51.910;7.724;2023-03-05T15:14:54;2.65;;;1.25;;
39264;SDS011;42646;51.910;7.724;2023-03-05T15:17:29;2.42;;;1.25;;
39264;SDS011;42646;51.910;7.724;2023-03-05T15:20:02;3.33;;;1.40;;
39264;SDS011;42646;51.910;7.724;2023-03-05T15:22:35;3.47;;;1.30;;
39264;SDS011;42646;51.910;7.724;2023-03-05T15:25:03;3.22;;;1.40;;
39264;SDS011;42646;51.910;7.724;2023-03-05T15:27:33;2.70;;;1.35;;
39264;SDS011;42646;51.910;7.724;2023-03-05T15:30:01;2.90;;;1.30;;
39264;SDS011;42646;51.910;7.724;2023-03-05T15:32:30;3.72;;;1.38;;
39264;SDS011;42646;51.910;7.724;2023-03-05T15:34:58;3.97;;;1.48;;